Time;durP1;ratioP1;P1;durP2;ratioP2;P2;SDS_P1;SDS_P2;PMS_P1;PMS_P2;Temp;Humidity;BMP_temperature;BMP_pressure;BME280_temperature;BME280_humidity;BME280_pressure;Samples;Min_cycle;Max_cycle;Signal;HPM_P1;HPM_P2
2023/04/19 00:01:46;;;;;;;;;36.33;30.00;;;;;12.53;60.13;101474.59;5076389;28;45503;-74
2023/04/19 00:04:13;;;;;;;;;31.00;27.67;;;;;12.94;60.01;101551.72;5077901;27;49908;-76
2023/04/19 00:06:39;;;;;;;;;30.33;25.67;;;;;12.98;60.09;101555.78;5059914;28;45547;-75
2023/04/19 00:09:06;;;;;;;;;29.00;25.67;;;;;12.76;59.86;101530.22;5059003;28;47685;-75
2023/04/19 00:11:31;;;;;;;;;36.67;33.33;;;;;12.73;60.07;101526.97;5077727;27;45228;-74
2023/04/19 00:13:56;;;;;;;;;30.00;29.33;;;;;12.69;59.89;101517.56;5077489;28;45621;-75
2023/04/19 00:16:21;;;;;;;;;36.67;30.00;;;;;12.68;60.06;101524.72;5076291;28;45501;-74
2023/04/19 00:18:47;;;;;;;;;30.33;26.67;;;;;12.87;60.59;101566.59;5076434;27;45512;-73
2023/04/19 00:21:12;;;;;;;;;26.00;26.00;;;;;12.92;60.32;101568.84;5076832;28;45410;-75
2023/04/19 00:23:38;;;;;;;;;28.00;25.00;;;;;12.93;60.04;101563.38;5077392;28;45555;-74
2023/04/19 00:26:03;;;;;;;;;29.67;25.33;;;;;12.30;60.33;101450.84;5059542;28;45780;-76
2023/04/19 00:28:29;;;;;;;;;25.67;23.67;;;;;12.25;59.87;101436.25;5058881;28;48040;-75
2023/04/19 00:30:55;;;;;;;;;27.00;26.33;;;;;12.43;60.21;101477.25;5077502;28;45422;-74
2023/04/19 00:33:20;;;;;;;;;33.00;29.67;;;;;12.88;60.46;101568.28;5077872;27;45439;-75
2023/04/19 00:35:45;;;;;;;;;28.00;27.67;;;;;12.91;60.10;101565.34;5077528;28;45319;-76
2023/04/19 00:38:11;;;;;;;;;29.00;26.67;;;;;12.93;60.13;101554.53;5076783;28;46544;-75
2023/04/19 00:40:36;;;;;;;;;26.33;24.67;;;;;12.67;60.03;101516.88;5077295;27;45310;-74
2023/04/19 00:43:02;;;;;;;;;31.67;28.33;;;;;12.51;60.43;101496.06;5059768;28;45454;-74
2023/04/19 00:45:27;;;;;;;;;18.33;18.33;;;;;12.13;59.89;101443.50;5077796;28;45494;-75
2023/04/19 00:47:54;;;;;;;;;29.00;26.67;;;;;12.25;60.40;101457.56;5076420;28;45438;-75
2023/04/19 00:50:20;;;;;;;;;25.33;25.00;;;;;12.76;60.11;101569.38;5058718;28;45490;-74
2023/04/19 00:52:46;;;;;;;;;29.67;24.67;;;;;12.02;60.64;101441.81;5076595;28;45637;-75
2023/04/19 00:55:12;;;;;;;;;28.67;26.67;;;;;12.55;60.95;101536.63;5076985;27;45501;-74
2023/04/19 00:57:37;;;;;;;;;25.67;25.00;;;;;12.04;60.61;101444.34;5077205;27;45518;-76
2023/04/19 01:00:05;;;;;;;;;24.33;23.00;;;;;12.57;60.97;101532.00;5076908;28;45290;-76
2023/04/19 01:02:31;;;;;;;;;25.00;24.00;;;;;11.80;60.68;101416.19;5075519;28;45405;-76
2023/04/19 01:04:56;;;;;;;;;25.33;22.33;;;;;12.64;60.53;101555.34;5077211;28;45264;-75
2023/04/19 01:07:22;;;;;;;;;24.67;24.67;;;;;12.44;60.23;101506.44;5077102;28;46383;-74
2023/04/19 01:09:47;;;;;;;;;25.00;24.00;;;;;11.87;60.46;101406.69;5079390;28;45469;-74
2023/04/19 01:12:12;;;;;;;;;18.33;16.67;;;;;12.56;60.47;101541.00;5078062;28;45308;-75
2023/04/19 01:14:38;;;;;;;;;23.00;21.67;;;;;12.56;61.05;101547.16;5077129;28;45537;-75
2023/04/19 01:17:04;;;;;;;;;24.67;24.67;;;;;12.49;60.65;101527.38;5076673;28;45597;-76
2023/04/19 01:19:30;;;;;;;;;26.00;24.67;;;;;12.55;61.34;101544.63;5076201;27;45505;-75
2023/04/19 01:21:57;;;;;;;;;20.33;20.33;;;;;12.11;60.83;101477.44;5057776;28;45489;-75
2023/04/19 01:24:22;;;;;;;;;24.67;23.67;;;;;12.16;61.25;101496.53;5076377;28;45392;-73
2023/04/19 01:26:47;;;;;;;;;19.67;19.67;;;;;12.33;61.43;101533.22;5076223;28;46246;-75
2023/04/19 01:29:13;;;;;;;;;23.67;20.33;;;;;12.30;61.39;101525.50;5076133;28;52748;-74
2023/04/19 01:31:38;;;;;;;;;24.00;22.00;;;;;12.06;61.25;101496.53;5079177;28;45377;-75
2023/04/19 01:34:04;;;;;;;;;23.33;21.33;;;;;11.93;61.87;101485.25;5082541;27;45665;-77
2023/04/19 01:36:30;;;;;;;;;21.00;21.00;;;;;12.29;61.96;101542.47;5079802;28;45738;-75
2023/04/19 01:38:55;;;;;;;;;24.00;21.33;;;;;12.34;61.76;101545.56;5061290;28;46360;-74
2023/04/19 01:41:21;;;;;;;;;22.33;22.33;;;;;12.01;61.90;101519.19;5080146;27;45422;-75
2023/04/19 01:43:47;;;;;;;;;24.67;21.33;;;;;12.12;62.38;101549.28;5080349;28;45421;-75
2023/04/19 01:46:12;;;;;;;;;17.00;15.67;;;;;12.07;62.23;101540.00;5079432;27;46235;-76
2023/04/19 01:48:37;;;;;;;;;20.00;20.00;;;;;11.91;62.68;101505.00;5079473;28;45494;-74
2023/04/19 01:51:03;;;;;;;;;22.00;20.00;;;;;11.94;62.49;101520.72;5079726;28;45486;-75
2023/04/19 01:53:28;;;;;;;;;18.33;16.67;;;;;11.82;61.82;101499.53;5079508;27;45443;-74
2023/04/19 01:55:54;;;;;;;;;23.00;23.00;;;;;11.62;62.38;101459.59;5078799;27;63689;-76
2023/04/19 01:58:19;;;;;;;;;23.33;20.67;;;;;11.85;62.74;101501.91;5079415;27;47226;-74
2023/04/19 02:00:45;;;;;;;;;28.67;24.33;;;;;11.82;62.50;101510.19;5079580;28;45554;-75
2023/04/19 02:03:10;;;;;;;;;27.67;23.67;;;;;11.28;62.69;101412.75;5079644;28;45451;-76
2023/04/19 02:05:38;;;;;;;;;24.33;20.00;;;;;12.05;62.58;101541.97;5079252;28;47361;-73
2023/04/19 02:08:03;;;;;;;;;26.67;21.33;;;;;11.94;62.33;101523.41;5060884;28;45418;-75
2023/04/19 02:10:28;;;;;;;;;22.00;21.00;;;;;12.00;62.91;101533.50;5079409;27;45284;-75
2023/04/19 02:12:54;;;;;;;;;20.67;20.67;;;;;11.73;62.36;101489.63;5079570;27;45298;-74
2023/04/19 02:15:19;;;;;;;;;21.67;18.67;;;;;11.98;62.54;101532.81;5079204;28;45561;-75
2023/04/19 02:17:45;;;;;;;;;20.67;19.67;;;;;12.03;62.47;101549.25;5061710;28;45363;-74
2023/04/19 02:20:11;;;;;;;;;20.67;20.33;;;;;12.00;62.14;101528.19;5081424;27;45258;-73
2023/04/19 02:22:36;;;;;;;;;21.33;20.33;;;;;11.64;62.47;101471.78;5079295;28;45337;-73
2023/04/19 02:25:01;;;;;;;;;19.33;19.00;;;;;11.87;62.21;101501.78;5078911;27;45301;-74
2023/04/19 02:27:27;;;;;;;;;25.67;22.33;;;;;11.71;62.59;101480.91;5079242;28;45297;-75
2023/04/19 02:29:53;;;;;;;;;21.00;18.33;;;;;10.51;62.36;101302.38;5079456;28;45599;-74
2023/04/19 02:32:18;;;;;;;;;21.33;19.67;;;;;11.94;62.35;101529.56;5079410;27;51413;-75
2023/04/19 02:34:43;;;;;;;;;24.00;21.00;;;;;11.75;62.84;101503.66;5080126;27;46544;-74
2023/04/19 02:37:09;;;;;;;;;20.33;19.33;;;;;11.95;62.69;101533.06;5060877;28;45440;-75
2023/04/19 02:39:34;;;;;;;;;14.67;14.00;;;;;11.65;62.40;101480.63;5060508;28;45334;-74
2023/04/19 02:42:00;;;;;;;;;22.33;21.00;;;;;11.26;62.40;101428.00;5078501;27;45655;-75
2023/04/19 02:44:26;;;;;;;;;18.00;18.00;;;;;11.73;62.12;101510.09;5078671;28;46357;-75
2023/04/19 02:46:52;;;;;;;;;20.33;20.33;;;;;11.90;62.90;101529.97;5078745;27;45242;-75
2023/04/19 02:49:19;;;;;;;;;22.00;20.33;;;;;11.79;62.66;101510.41;5060617;28;45488;-74
2023/04/19 02:51:45;;;;;;;;;21.33;21.00;;;;;11.75;62.31;101508.97;5078719;28;45443;-74
2023/04/19 02:54:11;;;;;;;;;21.67;20.67;;;;;11.70;62.65;101513.88;5078082;27;46028;-74
2023/04/19 02:56:36;;;;;;;;;20.33;19.67;;;;;11.40;62.92;101479.19;5078751;27;45471;-75
2023/04/19 02:59:03;;;;;;;;;19.00;19.00;;;;;11.68;62.77;101523.81;5078573;28;45311;-74
2023/04/19 03:01:29;;;;;;;;;21.00;16.00;;;;;11.65;62.75;101524.06;5078967;27;45408;-74
2023/04/19 03:03:56;;;;;;;;;20.67;16.67;;;;;11.60;63.19;101520.94;5078951;28;46883;-74
2023/04/19 03:06:21;;;;;;;;;22.67;18.67;;;;;11.71;63.34;101533.34;5078485;27;45459;-74
2023/04/19 03:08:47;;;;;;;;;21.00;20.00;;;;;11.74;63.03;101533.94;5078193;27;45326;-74
2023/04/19 03:11:15;;;;;;;;;20.33;20.00;;;;;11.68;63.41;101526.47;5060306;28;45428;-76
2023/04/19 03:13:40;;;;;;;;;20.00;19.00;;;;;11.57;62.90;101505.22;5078165;27;47712;-75
2023/04/19 03:16:06;;;;;;;;;15.33;14.33;;;;;11.41;63.50;101494.19;5078193;28;45278;-75
2023/04/19 03:18:32;;;;;;;;;21.33;17.67;;;;;11.57;63.29;101532.72;5078079;28;45507;-73
2023/04/19 03:20:57;;;;;;;;;23.67;21.67;;;;;11.21;63.12;101472.81;5079100;28;45339;-75
2023/04/19 03:23:24;;;;;;;;;23.67;22.67;;;;;11.28;63.77;101479.28;5077613;28;47838;-74
2023/04/19 03:25:50;;;;;;;;;17.67;16.33;;;;;11.59;63.38;101529.91;5079332;28;46052;-74
2023/04/19 03:28:15;;;;;;;;;26.67;24.33;;;;;11.33;63.42;101491.34;5078740;28;45221;-75
2023/04/19 03:30:41;;;;;;;;;24.33;19.67;;;;;11.68;63.24;101523.81;5078372;28;45212;-74
2023/04/19 03:33:06;;;;;;;;;20.67;20.00;;;;;11.53;62.92;101501.16;5059360;28;48978;-74
2023/04/19 03:35:32;;;;;;;;;24.00;22.33;;;;;11.60;63.44;101526.28;5078404;27;45309;-75
2023/04/19 03:37:57;;;;;;;;;22.00;21.00;;;;;11.40;63.53;101497.84;5077738;27;45259;-74
2023/04/19 03:40:23;;;;;;;;;20.67;20.67;;;;;11.58;63.03;101550.38;5078040;27;45280;-76
2023/04/19 03:42:48;;;;;;;;;24.67;20.00;;;;;10.72;64.36;101408.72;5077678;28;46037;-75
2023/04/19 03:45:14;;;;;;;;;26.67;23.00;;;;;11.23;64.57;101510.78;5077456;28;45496;-76
2023/04/19 03:47:39;;;;;;;;;25.67;20.33;;;;;10.30;64.13;101336.91;5077104;27;45440;-74
2023/04/19 03:50:05;;;;;;;;;22.33;19.00;;;;;11.37;63.78;101519.41;5059487;28;45605;-73
2023/04/19 03:52:30;;;;;;;;;26.00;24.67;;;;;11.05;64.38;101459.09;5077563;27;46758;-74
2023/04/19 03:54:56;;;;;;;;;25.33;21.33;;;;;11.37;64.10;101524.72;5076093;28;45443;-75
2023/04/19 03:57:21;;;;;;;;;24.33;23.33;;;;;11.10;64.61;101487.97;5077463;27;54169;-74
2023/04/19 03:59:46;;;;;;;;;23.67;20.67;;;;;10.71;64.60;101409.72;5077693;28;45392;-74
2023/04/19 04:02:12;;;;;;;;;25.67;21.00;;;;;11.25;64.66;101510.66;5077776;28;45582;-77
2023/04/19 04:04:37;;;;;;;;;23.33;22.67;;;;;10.99;64.54;101462.25;5077065;27;55956;-75
2023/04/19 04:07:02;;;;;;;;;19.33;19.33;;;;;11.11;64.95;101492.34;5077326;28;45327;-75
2023/04/19 04:09:28;;;;;;;;;24.33;22.00;;;;;10.79;64.41;101452.44;5058991;28;45649;-75
2023/04/19 04:11:53;;;;;;;;;15.00;14.00;;;;;11.10;65.03;101496.81;5059248;28;47539;-75
2023/04/19 04:14:18;;;;;;;;;21.00;19.67;;;;;11.21;64.83;101520.72;5058961;28;45458;-74
2023/04/19 04:16:44;;;;;;;;;14.67;13.33;;;;;11.30;64.73;101528.88;5059078;28;45510;-74
2023/04/19 04:19:09;;;;;;;;;25.33;22.00;;;;;11.23;65.16;101523.25;5077504;28;45498;-75
2023/04/19 04:21:35;;;;;;;;;25.00;24.00;;;;;11.04;64.86;101505.31;5077167;28;47456;-73
2023/04/19 04:24:03;;;;;;;;;25.00;23.67;;;;;10.83;65.66;101483.16;5058698;28;45387;-73
2023/04/19 04:26:32;;;;;;;;;25.00;21.00;;;;;11.06;65.99;101532.63;5077241;28;45305;-75
2023/04/19 04:29:00;;;;;;;;;29.00;26.00;;;;;10.22;65.75;101387.22;5059065;28;45448;-75
2023/04/19 04:31:26;;;;;;;;;27.33;25.00;;;;;10.68;65.49;101465.81;5077507;27;46892;-76
2023/04/19 04:33:54;;;;;;;;;25.00;19.33;;;;;10.47;66.16;101457.78;5079053;28;45431;-73
2023/04/19 04:36:19;;;;;;;;;28.67;21.33;;;;;10.82;65.90;101503.59;5078991;27;45992;-74
2023/04/19 04:38:45;;;;;;;;;30.00;27.00;;;;;10.78;66.01;101496.81;5078299;27;45308;-73
2023/04/19 04:41:11;;;;;;;;;24.33;24.33;;;;;10.75;65.77;101490.91;5087829;27;45394;-75
2023/04/19 04:43:37;;;;;;;;;23.33;23.33;;;;;10.97;66.06;101531.56;5075469;28;45351;-74
2023/04/19 04:46:02;;;;;;;;;31.33;30.33;;;;;10.58;66.33;101461.25;5077356;27;45311;-74
2023/04/19 04:48:28;;;;;;;;;23.67;22.33;;;;;10.80;65.90;101520.63;5076121;27;46167;-73
2023/04/19 04:50:53;;;;;;;;;21.00;18.33;;;;;11.08;65.50;101536.00;5075143;27;46730;-75
2023/04/19 04:53:19;;;;;;;;;24.00;21.33;;;;;11.11;65.46;101540.25;5076677;27;45214;-74
2023/04/19 04:55:44;;;;;;;;;28.33;27.33;;;;;10.86;65.70;101507.69;5077004;28;45199;-74
2023/04/19 04:58:10;;;;;;;;;28.00;25.00;;;;;11.04;66.09;101545.22;5077578;28;45431;-73
2023/04/19 05:00:35;;;;;;;;;25.67;23.00;;;;;10.91;65.38;101500.16;5076766;27;45539;-77
2023/04/19 05:03:01;;;;;;;;;25.00;24.00;;;;;11.15;65.14;101536.34;5076317;28;47084;-73
2023/04/19 05:05:26;;;;;;;;;25.33;24.00;;;;;11.15;65.18;101536.34;5076996;27;45281;-75
2023/04/19 05:07:52;;;;;;;;;26.00;24.67;;;;;11.02;65.56;101509.94;5077827;27;45435;-75
2023/04/19 05:10:17;;;;;;;;;27.33;25.33;;;;;11.14;65.78;101534.66;5050628;28;45274;-74
2023/04/19 05:12:42;;;;;;;;;26.00;24.33;;;;;10.71;65.24;101461.09;5056972;28;45254;-77
2023/04/19 05:15:08;;;;;;;;;27.33;24.33;;;;;11.11;65.17;101543.75;5073451;28;45338;-76
2023/04/19 05:17:33;;;;;;;;;30.00;26.33;;;;;10.78;65.93;101495.97;5080128;27;45544;-74
2023/04/19 05:19:59;;;;;;;;;25.67;25.33;;;;;11.04;65.85;101550.56;5079369;27;45462;-74
2023/04/19 05:22:25;;;;;;;;;23.33;22.00;;;;;10.65;66.01;101491.69;5074909;27;45465;-73
2023/04/19 05:24:50;;;;;;;;;30.67;25.00;;;;;11.12;65.67;101545.44;5073673;28;45475;-76
2023/04/19 05:27:16;;;;;;;;;25.33;23.00;;;;;11.08;65.27;101545.81;5080377;28;45622;-77
2023/04/19 05:29:41;;;;;;;;;29.00;27.33;;;;;10.76;65.94;101506.75;5081069;28;45986;-74
2023/04/19 05:32:06;;;;;;;;;24.67;24.33;;;;;11.04;65.62;101566.53;5061512;27;45571;-74
2023/04/19 05:34:32;;;;;;;;;25.67;24.00;;;;;11.13;65.53;101546.28;5068213;27;45538;-76
2023/04/19 05:36:58;;;;;;;;;28.33;25.33;;;;;11.08;66.00;101541.34;5063047;27;45577;-75
2023/04/19 05:39:23;;;;;;;;;22.67;21.67;;;;;11.10;65.36;101534.06;5081186;27;45699;-75
2023/04/19 05:41:48;;;;;;;;;25.67;25.00;;;;;10.45;65.51;101419.84;5075375;28;45629;-77
2023/04/19 05:44:14;;;;;;;;;32.00;28.67;;;;;10.70;65.34;101477.16;5058906;28;45305;-78
2023/04/19 05:46:39;;;;;;;;;30.33;26.00;;;;;10.73;65.38;101492.88;5058620;28;45272;-75
2023/04/19 05:49:05;;;;;;;;;27.00;24.00;;;;;10.95;65.51;101524.69;5058982;28;45733;-77
2023/04/19 05:51:30;;;;;;;;;26.67;26.67;;;;;11.08;64.97;101545.81;5061196;27;45244;-76
2023/04/19 05:53:56;;;;;;;;;28.33;26.67;;;;;10.60;65.43;101472.59;5079710;28;45302;-77
2023/04/19 05:56:21;;;;;;;;;27.67;27.00;;;;;11.17;65.64;101561.84;5078205;28;45416;-76
2023/04/19 05:58:46;;;;;;;;;23.00;22.00;;;;;11.21;65.28;101578.41;5064881;27;45512;-74
2023/04/19 06:01:12;;;;;;;;;31.33;28.00;;;;;10.97;65.67;101533.38;5089278;27;46173;-75
2023/04/19 06:03:38;;;;;;;;;31.00;30.00;;;;;11.19;65.85;101569.69;5061547;28;45469;-76
2023/04/19 06:06:03;;;;;;;;;30.00;25.67;;;;;10.99;65.56;101544.75;5079364;27;45450;-75
2023/04/19 06:08:29;;;;;;;;;29.67;26.33;;;;;11.25;65.51;101572.72;5079475;28;46684;-76
2023/04/19 06:10:55;;;;;;;;;30.67;28.00;;;;;11.24;65.42;101579.03;5079292;28;45324;-76
2023/04/19 06:13:21;;;;;;;;;30.67;28.33;;;;;10.97;65.19;101523.59;5071381;27;45236;-79
2023/04/19 06:15:46;;;;;;;;;32.67;30.00;;;;;11.25;64.77;101553.25;5079278;28;45378;-75
2023/04/19 06:18:12;;;;;;;;;32.67;29.33;;;;;11.25;64.92;101554.09;5073904;27;46171;-76
2023/04/19 06:20:38;;;;;;;;;32.33;28.67;;;;;10.64;65.26;101444.81;5071740;27;45309;-74
2023/04/19 06:23:04;;;;;;;;;27.00;27.00;;;;;11.49;64.78;101576.94;5077916;28;45623;-74
2023/04/19 06:25:30;;;;;;;;;29.67;27.33;;;;;11.40;64.00;101551.09;5079789;27;45459;-75
2023/04/19 06:27:55;;;;;;;;;30.00;28.67;;;;;10.72;64.33;101438.84;5058639;28;48356;-77
2023/04/19 06:30:20;;;;;;;;;34.33;31.00;;;;;11.96;63.61;101577.41;5079099;27;45432;-77
2023/04/19 06:32:46;;;;;;;;;30.67;27.33;;;;;12.61;61.70;101586.75;5061456;28;45473;-77
2023/04/19 06:35:11;;;;;;;;;28.00;25.00;;;;;13.29;60.14;101571.72;5079574;28;45446;-79
2023/04/19 06:37:37;;;;;;;;;26.33;22.67;;;;;13.13;57.48;101440.56;5079835;27;46440;-76
2023/04/19 06:40:04;;;;;;;;;30.33;27.33;;;;;14.59;56.06;101573.56;5063728;28;46164;-79
2023/04/19 06:42:29;;;;;;;;;35.33;30.67;;;;;15.21;53.26;101569.19;5080127;27;45481;-77
2023/04/19 06:44:56;;;;;;;;;32.33;26.67;;;;;15.23;52.40;101516.31;5079316;28;45422;-77
2023/04/19 06:47:21;;;;;;;;;30.33;25.33;;;;;16.10;51.01;101588.63;5078643;27;45521;-77
2023/04/19 06:49:47;;;;;;;;;27.00;21.33;;;;;16.49;50.23;101550.56;5081290;28;45477;-79
2023/04/19 06:52:12;;;;;;;;;23.33;21.67;;;;;16.80;48.37;101518.59;5063819;28;45818;-76
2023/04/19 06:54:38;;;;;;;;;17.67;14.33;;;;;17.65;46.88;101589.03;5063714;28;45513;-77
2023/04/19 06:57:03;;;;;;;;;23.67;20.67;;;;;17.92;46.31;101585.97;5079603;28;45190;-77
2023/04/19 06:59:31;;;;;;;;;27.00;26.00;;;;;17.88;45.88;101517.38;5078888;28;45386;-77
2023/04/19 07:01:57;;;;;;;;;25.00;21.67;;;;;18.89;44.43;101581.22;5079048;28;45313;-77
2023/04/19 07:04:22;;;;;;;;;22.00;22.00;;;;;18.75;42.84;101495.78;5060750;27;45499;-76
2023/04/19 07:06:49;;;;;;;;;26.00;22.67;;;;;19.54;42.61;101569.97;5078297;28;46707;-78
2023/04/19 07:09:14;;;;;;;;;28.33;25.67;;;;;19.94;41.59;101532.78;5078571;27;45333;-80
2023/04/19 07:11:40;;;;;;;;;24.33;22.33;;;;;20.57;40.10;101596.19;5060202;28;45383;-76
2023/04/19 07:14:05;;;;;;;;;24.33;23.33;;;;;20.62;39.21;101554.09;5060603;28;45477;-78
2023/04/19 07:16:31;;;;;;;;;23.00;23.00;;;;;21.24;39.15;101548.09;5078859;27;45659;-76
2023/04/19 07:18:57;;;;;;;;;26.33;23.00;;;;;21.51;37.11;101510.44;5079022;28;45423;-78
2023/04/19 07:21:25;;;;;;;;;24.33;23.67;;;;;22.01;36.78;101522.81;5079348;27;45337;-84
2023/04/19 07:23:51;;;;;;;;;36.67;33.67;;;;;22.92;36.55;101580.34;5078469;27;45540;-79
2023/04/19 07:26:16;;;;;;;;;29.00;25.00;;;;;23.28;35.04;101584.59;5079008;28;46576;-75
2023/04/19 07:28:41;;;;;;;;;29.33;21.00;;;;;23.10;34.41;101522.81;5060255;28;45815;-79
2023/04/19 07:31:07;;;;;;;;;18.67;18.67;;;;;23.71;33.62;101574.19;5060894;28;45451;-77
2023/04/19 07:33:33;;;;;;;;;25.67;22.67;;;;;23.48;32.98;101498.59;5079066;27;45455;-78
2023/04/19 07:35:58;;;;;;;;;23.67;22.67;;;;;24.26;33.74;101582.84;5060946;27;47967;-74
2023/04/19 07:38:24;;;;;;;;;23.67;21.00;;;;;24.43;32.62;101546.03;5064403;27;45231;-75
2023/04/19 07:40:50;;;;;;;;;23.00;21.33;;;;;24.19;32.50;101549.41;5059182;28;45493;-79
2023/04/19 07:43:15;;;;;;;;;29.67;27.33;;;;;23.72;31.67;101461.81;5068338;27;45457;-75
2023/04/19 07:45:41;;;;;;;;;22.67;21.00;;;;;24.04;32.19;101475.50;5093196;27;45620;-76
2023/04/19 07:48:06;;;;;;;;;25.67;25.67;;;;;24.45;32.22;101564.84;5055441;28;45581;-77
2023/04/19 07:50:32;;;;;;;;;22.33;20.67;;;;;24.20;31.83;101508.44;5055012;28;45437;-77
2023/04/19 07:53:01;;;;;;;;;25.67;24.67;;;;;24.55;31.73;101584.22;5056322;28;45645;-74
2023/04/19 07:55:27;;;;;;;;;23.67;21.67;;;;;24.06;32.48;101554.91;5056246;28;45486;-79
2023/04/19 07:57:52;;;;;;;;;19.67;19.67;;;;;24.17;32.43;101540.66;5074533;27;45400;-76
2023/04/19 08:00:20;;;;;;;;;23.33;22.00;;;;;24.41;32.57;101594.31;5057042;27;46297;-76
2023/04/19 08:02:46;;;;;;;;;24.00;22.67;;;;;23.61;31.94;101449.72;5053908;28;45478;-75
2023/04/19 08:05:13;;;;;;;;;24.00;22.00;;;;;22.12;32.11;101189.19;5052266;28;47369;-77
2023/04/19 08:07:38;;;;;;;;;25.33;24.33;;;;;24.44;32.11;101584.91;5053554;28;45453;-76
2023/04/19 08:10:07;;;;;;;;;25.33;23.67;;;;;24.48;31.92;101583.44;5054011;28;45635;-77
2023/04/19 08:12:33;;;;;;;;;19.33;19.33;;;;;23.92;32.33;101511.47;5053062;28;45469;-76
2023/04/19 08:14:58;;;;;;;;;20.00;17.67;;;;;24.87;31.86;101549.75;5056214;28;46444;-79
2023/04/19 08:17:25;;;;;;;;;25.00;20.67;;;;;25.78;31.01;101592.88;5059410;28;46475;-78
2023/04/19 08:19:51;;;;;;;;;25.67;23.33;;;;;25.86;29.85;101545.44;5056985;28;45273;-77
2023/04/19 08:22:17;;;;;;;;;20.00;18.00;;;;;26.05;29.89;101549.84;5058278;28;45403;-77
2023/04/19 08:24:43;;;;;;;;;25.67;22.67;;;;;26.47;29.78;101583.56;5053281;28;47197;-77
2023/04/19 08:27:09;;;;;;;;;25.00;21.33;;;;;26.15;29.79;101533.78;5043070;28;45570;-77
2023/04/19 08:29:35;;;;;;;;;22.00;22.00;;;;;26.08;29.54;101554.84;5057718;28;45672;-77
2023/04/19 08:32:00;;;;;;;;;24.00;18.67;;;;;26.19;29.39;101510.47;5046037;28;45516;-76
2023/04/19 08:34:27;;;;;;;;;24.00;20.33;;;;;26.51;29.77;101576.59;5077072;28;45504;-76
2023/04/19 08:36:52;;;;;;;;;23.33;20.00;;;;;26.35;28.83;101512.59;5076855;27;45435;-77
2023/04/19 08:39:18;;;;;;;;;16.00;14.33;;;;;26.58;29.00;101533.69;5062157;27;45315;-77
2023/04/19 08:41:43;;;;;;;;;24.00;21.67;;;;;26.21;27.89;101425.72;5065616;28;45520;-78
2023/04/19 08:44:12;;;;;;;;;27.67;25.00;;;;;26.28;28.11;101467.38;5079785;28;47301;-78
2023/04/19 08:46:37;;;;;;;;;18.33;17.33;;;;;26.77;28.66;101514.53;5084420;27;45454;-78
2023/04/19 08:49:07;;;;;;;;;21.33;18.67;;;;;26.64;28.08;101512.84;5100686;27;45485;-78
2023/04/19 08:51:33;;;;;;;;;22.33;21.00;;;;;26.12;28.16;101452.47;5100638;27;45546;-77
2023/04/19 08:54:02;;;;;;;;;23.67;19.33;;;;;26.84;28.50;101559.78;5100688;27;45893;-76
2023/04/19 08:56:29;;;;;;;;;22.33;21.00;;;;;27.07;28.03;101552.75;5082308;27;45955;-79
2023/04/19 08:58:55;;;;;;;;;19.33;19.33;;;;;26.42;28.33;101525.28;5099926;27;45196;-78
2023/04/19 09:01:20;;;;;;;;;28.00;28.00;;;;;25.42;29.68;101530.94;5063477;28;45616;-77
2023/04/19 09:03:46;;;;;;;;;22.00;19.33;;;;;25.74;29.89;101548.91;5082336;27;46473;-79
2023/04/19 09:06:12;;;;;;;;;21.00;19.67;;;;;25.92;29.30;101525.47;5080369;28;45431;-80
2023/04/19 09:08:38;;;;;;;;;21.67;21.67;;;;;26.36;28.66;101566.06;5082571;27;45477;-78
2023/04/19 09:11:04;;;;;;;;;16.67;16.67;;;;;26.43;28.31;101521.50;5082653;27;45571;-79
2023/04/19 09:13:31;;;;;;;;;18.33;17.33;;;;;26.75;28.07;101522.13;5100448;27;46381;-78
2023/04/19 09:15:59;;;;;;;;;23.67;23.33;;;;;27.45;27.55;101517.66;5100209;27;45384;-78
2023/04/19 09:18:24;;;;;;;;;20.00;19.67;;;;;27.48;27.11;101513.63;5057250;27;45491;-77
2023/04/19 09:20:55;;;;;;;;;20.67;17.67;;;;;28.11;26.42;101571.09;5082165;27;45290;-76
2023/04/19 09:23:21;;;;;;;;;21.33;20.33;;;;;29.33;25.47;101562.56;5090027;27;45739;-78
2023/04/19 09:26:01;;;;;;;;;19.33;18.00;;;;;28.83;23.27;101293.41;5081338;28;45407;-76
2023/04/19 09:28:30;;;;;;;;;17.67;16.00;;;;;30.71;22.97;101517.84;5094568;27;45326;-78
2023/04/19 09:30:57;;;;;;;;;21.67;20.00;;;;;32.09;22.35;101553.56;5094432;27;45525;-78
2023/04/19 09:33:39;;;;;;;;;19.33;18.33;;;;;33.47;20.31;101549.19;5084142;27;46072;-78
2023/04/19 09:36:06;;;;;;;;;17.67;16.00;;;;;33.77;20.29;101498.66;5077326;27;45514;-76
2023/04/19 09:38:48;;;;;;;;;18.00;18.00;;;;;34.04;19.24;101435.69;5066080;27;45569;-76
2023/04/19 09:41:14;;;;;;;;;25.67;24.67;;;;;35.17;19.02;101537.94;5077723;28;45284;-77
2023/04/19 09:43:39;;;;;;;;;19.00;19.00;;;;;34.94;18.54;101553.34;5081985;28;45482;-75
2023/04/19 09:46:05;;;;;;;;;18.33;16.33;;;;;34.40;19.11;101487.94;5065697;28;45493;-77
2023/04/19 09:48:30;;;;;;;;;19.33;19.33;;;;;34.22;18.87;101505.13;5083599;27;45423;-79
2023/04/19 09:51:00;;;;;;;;;19.00;18.00;;;;;34.25;19.24;101526.66;5079531;28;45336;-78
2023/04/19 09:53:27;;;;;;;;;16.67;16.67;;;;;34.33;19.17;101507.53;5079774;27;45709;-77
2023/04/19 09:55:53;;;;;;;;;19.00;17.67;;;;;34.26;19.47;101451.00;5078901;28;45340;-76
2023/04/19 09:58:20;;;;;;;;;17.67;17.33;;;;;34.53;18.80;101436.78;5083689;27;45209;-77
2023/04/19 10:00:46;;;;;;;;;16.00;16.00;;;;;34.93;18.39;101439.22;5061401;28;45340;-78
2023/04/19 10:03:14;;;;;;;;;17.67;17.67;;;;;36.00;18.23;101520.25;5088934;27;45522;-75
2023/04/19 10:05:41;;;;;;;;;20.00;17.67;;;;;35.33;18.37;101520.13;5099883;27;45558;-77
2023/04/19 10:08:08;;;;;;;;;14.33;14.33;;;;;33.00;18.16;101302.31;5075998;27;45521;-78
2023/04/19 10:10:33;;;;;;;;;21.00;18.67;;;;;32.75;19.35;101464.84;5094007;27;45481;-78
2023/04/19 10:13:02;;;;;;;;;17.67;15.67;;;;;32.24;20.57;101481.25;5061725;28;47486;-77
2023/04/19 10:15:29;;;;;;;;;16.00;16.00;;;;;31.11;21.70;101518.22;5078926;27;45335;-77
2023/04/19 10:17:54;;;;;;;;;12.67;12.67;;;;;30.25;22.65;101490.72;5061139;27;45360;-78
2023/04/19 10:20:25;;;;;;;;;15.67;15.67;;;;;29.17;23.70;101470.25;5067057;27;45521;-77
2023/04/19 10:22:51;;;;;;;;;17.33;16.33;;;;;28.02;25.23;101456.91;5083472;27;46548;-76
2023/04/19 10:25:17;;;;;;;;;16.67;15.67;;;;;27.10;26.55;101465.75;5060685;28;45432;-80
2023/04/19 10:27:45;;;;;;;;;11.67;10.67;;;;;26.31;27.89;101473.19;5093084;27;45784;-77
2023/04/19 10:30:16;;;;;;;;;18.67;16.00;;;;;25.66;29.15;101519.22;5064565;27;45265;-80
2023/04/19 10:32:44;;;;;;;;;18.00;18.00;;;;;24.75;30.19;101456.31;5099206;27;45973;-75
2023/04/19 10:35:20;;;;;;;;;17.67;16.67;;;;;24.18;31.17;101471.66;5099801;27;45261;-77
2023/04/19 10:38:12;;;;;;;;;21.00;21.00;;;;;23.62;33.40;101513.00;5099901;27;45354;-82
2023/04/19 10:40:56;;;;;;;;;20.33;18.67;;;;;23.11;33.95;101496.53;5101996;27;45336;-76
2023/04/19 10:43:26;;;;;;;;;26.00;22.00;;;;;22.35;35.26;101488.63;5103073;27;45671;-78
2023/04/19 10:45:52;;;;;;;;;20.00;19.67;;;;;21.47;36.69;101442.38;5100224;27;45434;-77
2023/04/19 10:48:29;;;;;;;;;20.00;18.00;;;;;19.45;37.30;101140.41;5090932;27;45331;-78
2023/04/19 10:51:02;;;;;;;;;22.33;22.33;;;;;21.14;38.31;101471.00;5061172;28;45298;-77
2023/04/19 10:53:47;;;;;;;;;20.33;18.00;;;;;19.92;39.44;101362.13;5060188;28;47606;-77
2023/04/19 10:56:14;;;;;;;;;27.00;24.00;;;;;20.22;40.54;101509.53;5075854;27;45367;-77
2023/04/19 10:59:06;;;;;;;;;21.00;20.00;;;;;19.93;41.37;101504.13;5061085;28;45597;-77
2023/04/19 11:01:38;;;;;;;;;23.00;20.33;;;;;19.83;41.77;101492.81;5077632;27;45584;-78
2023/04/19 11:04:08;;;;;;;;;20.33;19.33;;;;;19.57;41.41;101450.09;5097625;27;46325;-79
2023/04/19 11:06:36;;;;;;;;;24.67;21.33;;;;;19.26;42.22;101447.53;5062416;28;45389;-79